sensor_id;sensor_type;location;lat;lon;timestamp;pressure;altitude;pressure_sealevel;temperature;humidity
17060;BME280;8646;49.716;9.266;2023-04-06T00:00:45;100683.81;;;2.32;63.89
17060;BME280;8646;49.716;9.266;2023-04-06T00:03:47;100680.28;;;2.27;64.21
17060;BME280;8646;49.716;9.266;2023-04-06T00:06:50;100687.41;;;2.23;64.34
17060;BME280;8646;49.716;9.266;2023-04-06T00:09:53;100682.94;;;2.21;64.50
17060;BME280;8646;49.716;9.266;2023-04-06T00:12:56;100682.97;;;2.16;64.43
17060;BME280;8646;49.716;9.266;2023-04-06T00:16:00;100679.41;;;2.14;64.49
17060;BME280;8646;49.716;9.266;2023-04-06T00:19:04;100687.41;;;2.13;64.47
17060;BME280;8646;49.716;9.266;2023-04-06T00:22:07;100682.97;;;2.12;64.64
17060;BME280;8646;49.716;9.266;2023-04-06T00:25:10;100685.66;;;2.07;64.68
17060;BME280;8646;49.716;9.266;2023-04-06T00:28:12;100681.22;;;2.05;64.74
17060;BME280;8646;49.716;9.266;2023-04-06T00:31:17;100679.47;;;2.02;64.68
17060;BME280;8646;49.716;9.266;2023-04-06T00:34:19;100678.53;;;2.05;64.58
17060;BME280;8646;49.716;9.266;2023-04-06T00:37:22;100656.34;;;1.89;64.90
17060;BME280;8646;49.716;9.266;2023-04-06T00:40:25;100672.34;;;1.94;65.03
17060;BME280;8646;49.716;9.266;2023-04-06T00:43:29;100671.47;;;1.95;64.88
17060;BME280;8646;49.716;9.266;2023-04-06T00:46:33;100668.78;;;1.98;65.17
17060;BME280;8646;49.716;9.266;2023-04-06T00:49:37;100665.25;;;1.92;65.75
17060;BME280;8646;49.716;9.266;2023-04-06T00:52:39;100663.47;;;1.88;65.89
17060;BME280;8646;49.716;9.266;2023-04-06T00:55:42;100665.25;;;1.79;66.48
17060;BME280;8646;49.716;9.266;2023-04-06T00:58:45;100660.81;;;1.73;66.45
17060;BME280;8646;49.716;9.266;2023-04-06T01:01:49;100652.78;;;1.79;67.33
17060;BME280;8646;49.716;9.266;2023-04-06T01:04:52;100650.16;;;1.76;67.30
17060;BME280;8646;49.716;9.266;2023-04-06T01:07:55;100662.59;;;1.83;68.49
17060;BME280;8646;49.716;9.266;2023-04-06T01:10:59;100651.91;;;1.71;68.41
17060;BME280;8646;49.716;9.266;2023-04-06T01:14:03;100656.41;;;1.69;68.17
17060;BME280;8646;49.716;9.266;2023-04-06T01:17:07;100654.59;;;1.64;68.00
17060;BME280;8646;49.716;9.266;2023-04-06T01:20:10;100653.72;;;1.63;67.79
17060;BME280;8646;49.716;9.266;2023-04-06T01:23:14;100650.16;;;1.58;67.76
17060;BME280;8646;49.716;9.266;2023-04-06T01:26:16;100650.16;;;1.55;67.65
17060;BME280;8646;49.716;9.266;2023-04-06T01:29:19;100635.94;;;1.47;67.58
17060;BME280;8646;49.716;9.266;2023-04-06T01:32:22;100635.06;;;1.39;68.13
17060;BME280;8646;49.716;9.266;2023-04-06T01:35:26;100651.97;;;1.38;68.05
17060;BME280;8646;49.716;9.266;2023-04-06T01:38:30;100640.41;;;1.31;68.19
17060;BME280;8646;49.716;9.266;2023-04-06T01:41:32;100645.75;;;1.24;68.06
17060;BME280;8646;49.716;9.266;2023-04-06T01:44:35;100640.41;;;1.34;68.41
17060;BME280;8646;49.716;9.266;2023-04-06T01:47:38;100641.28;;;1.32;68.53
17060;BME280;8646;49.716;9.266;2023-04-06T01:50:41;100627.09;;;1.30;68.54
17060;BME280;8646;49.716;9.266;2023-04-06T01:53:45;100639.53;;;1.37;69.93
17060;BME280;8646;49.716;9.266;2023-04-06T01:56:48;100634.22;;;1.29;69.91
17060;BME280;8646;49.716;9.266;2023-04-06T01:59:52;100635.97;;;1.24;69.76
17060;BME280;8646;49.716;9.266;2023-04-06T02:02:54;100622.66;;;1.38;70.91
17060;BME280;8646;49.716;9.266;2023-04-06T02:05:57;100635.97;;;1.44;72.23
17060;BME280;8646;49.716;9.266;2023-04-06T02:09:02;100638.63;;;1.26;71.87
17060;BME280;8646;49.716;9.266;2023-04-06T02:12:05;100631.50;;;1.23;71.36
17060;BME280;8646;49.716;9.266;2023-04-06T02:15:08;100627.06;;;1.08;72.09
17060;BME280;8646;49.716;9.266;2023-04-06T02:18:11;100629.75;;;1.11;71.63
17060;BME280;8646;49.716;9.266;2023-04-06T02:21:14;100624.41;;;1.14;71.51
17060;BME280;8646;49.716;9.266;2023-04-06T02:24:22;100628.84;;;1.06;71.69
17060;BME280;8646;49.716;9.266;2023-04-06T02:27:25;100625.31;;;1.04;71.22
17060;BME280;8646;49.716;9.266;2023-04-06T02:30:28;100622.63;;;1.01;71.09
17060;BME280;8646;49.716;9.266;2023-04-06T02:33:38;100627.97;;;1.00;70.80
17060;BME280;8646;49.716;9.266;2023-04-06T02:36:41;100621.75;;;1.02;70.70
17060;BME280;8646;49.716;9.266;2023-04-06T02:39:45;100617.31;;;0.97;70.80
17060;BME280;8646;49.716;9.266;2023-04-06T02:42:48;100619.06;;;0.92;71.44
17060;BME280;8646;49.716;9.266;2023-04-06T02:45:51;100619.06;;;0.92;71.40
17060;BME280;8646;49.716;9.266;2023-04-06T02:48:54;100620.84;;;0.88;71.07
17060;BME280;8646;49.716;9.266;2023-04-06T02:51:57;100619.06;;;0.87;71.66
17060;BME280;8646;49.716;9.266;2023-04-06T02:55:01;100625.28;;;0.85;71.44
17060;BME280;8646;49.716;9.266;2023-04-06T02:58:04;100616.41;;;0.87;71.46
17060;BME280;8646;49.716;9.266;2023-04-06T03:01:07;100623.50;;;0.79;72.22
17060;BME280;8646;49.716;9.266;2023-04-06T03:04:10;100622.59;;;0.75;72.04
17060;BME280;8646;49.716;9.266;2023-04-06T03:07:13;100627.94;;;0.77;71.71
17060;BME280;8646;49.716;9.266;2023-04-06T03:10:17;100626.16;;;0.73;72.32
17060;BME280;8646;49.716;9.266;2023-04-06T03:13:20;100626.16;;;0.70;72.64
17060;BME280;8646;49.716;9.266;2023-04-06T03:16:23;100631.47;;;0.68;72.35
17060;BME280;8646;49.716;9.266;2023-04-06T03:19:26;100627.91;;;0.68;72.52
17060;BME280;8646;49.716;9.266;2023-04-06T03:22:29;100632.38;;;0.64;72.85
17060;BME280;8646;49.716;9.266;2023-04-06T03:25:33;100628.81;;;0.64;72.73
17060;BME280;8646;49.716;9.266;2023-04-06T03:28:36;100626.13;;;0.56;72.94
17060;BME280;8646;49.716;9.266;2023-04-06T03:31:38;100626.13;;;0.55;72.88
17060;BME280;8646;49.716;9.266;2023-04-06T03:34:41;100602.16;;;0.56;73.37
17060;BME280;8646;49.716;9.266;2023-04-06T03:37:44;100626.16;;;0.73;74.17
17060;BME280;8646;49.716;9.266;2023-04-06T03:40:48;100636.78;;;0.61;74.42
17060;BME280;8646;49.716;9.266;2023-04-06T03:43:51;100631.44;;;0.55;74.71
17060;BME280;8646;49.716;9.266;2023-04-06T03:46:54;100638.53;;;0.48;74.42
17060;BME280;8646;49.716;9.266;2023-04-06T03:49:57;100636.75;;;0.46;74.14
17060;BME280;8646;49.716;9.266;2023-04-06T03:53:00;100642.03;;;0.38;74.77
17060;BME280;8646;49.716;9.266;2023-04-06T03:56:06;100637.56;;;0.34;74.55
17060;BME280;8646;49.716;9.266;2023-04-06T03:59:09;100645.56;;;0.35;74.00
17060;BME280;8646;49.716;9.266;2023-04-06T04:02:12;100644.66;;;0.29;74.67
17060;BME280;8646;49.716;9.266;2023-04-06T04:05:15;100647.31;;;0.23;74.77
17060;BME280;8646;49.716;9.266;2023-04-06T04:08:17;100649.06;;;0.21;74.38
17060;BME280;8646;49.716;9.266;2023-04-06T04:11:22;100647.28;;;0.20;74.28
17060;BME280;8646;49.716;9.266;2023-04-06T04:14:24;100647.25;;;0.17;74.49
17060;BME280;8646;49.716;9.266;2023-04-06T04:17:27;100658.81;;;0.17;74.34
17060;BME280;8646;49.716;9.266;2023-04-06T04:20:30;100650.84;;;0.16;74.34
17060;BME280;8646;49.716;9.266;2023-04-06T04:23:33;100652.59;;;0.14;74.28
17060;BME280;8646;49.716;9.266;2023-04-06T04:26:39;100632.13;;;-0.01;74.35
17060;BME280;8646;49.716;9.266;2023-04-06T04:29:42;100661.47;;;0.16;74.28
17060;BME280;8646;49.716;9.266;2023-04-06T04:32:45;100652.56;;;0.11;74.36
17060;BME280;8646;49.716;9.266;2023-04-06T04:35:48;100658.88;;;0.35;75.84
17060;BME280;8646;49.716;9.266;2023-04-06T04:38:51;100657.13;;;0.37;75.96
17060;BME280;8646;49.716;9.266;2023-04-06T04:41:55;100656.19;;;0.26;76.00
17060;BME280;8646;49.716;9.266;2023-04-06T04:44:58;100660.59;;;0.18;75.85
17060;BME280;8646;49.716;9.266;2023-04-06T04:48:01;100671.28;;;0.33;76.33
17060;BME280;8646;49.716;9.266;2023-04-06T04:51:04;100674.88;;;0.37;76.69
17060;BME280;8646;49.716;9.266;2023-04-06T04:54:07;100666.00;;;0.43;77.00
17060;BME280;8646;49.716;9.266;2023-04-06T04:57:11;100668.66;;;0.43;77.39
17060;BME280;8646;49.716;9.266;2023-04-06T05:00:14;100674.88;;;0.32;77.39
17060;BME280;8646;49.716;9.266;2023-04-06T05:03:20;100672.16;;;0.26;76.92
17060;BME280;8646;49.716;9.266;2023-04-06T05:06:23;100674.78;;;0.17;77.18
17060;BME280;8646;49.716;9.266;2023-04-06T05:09:29;100672.22;;;0.37;77.33
17060;BME280;8646;49.716;9.266;2023-04-06T05:12:33;100667.81;;;0.41;77.36
17060;BME280;8646;49.716;9.266;2023-04-06T05:15:36;100672.16;;;0.28;77.59
17060;BME280;8646;49.716;9.266;2023-04-06T05:18:41;100682.84;;;0.32;77.39
17060;BME280;8646;49.716;9.266;2023-04-06T05:21:44;100673.09;;;0.37;77.59
17060;BME280;8646;49.716;9.266;2023-04-06T05:24:47;100674.97;;;0.57;77.17
17060;BME280;8646;49.716;9.266;2023-04-06T05:27:51;100650.06;;;0.52;77.24
17060;BME280;8646;49.716;9.266;2023-04-06T05:30:54;100681.19;;;0.69;77.24
17060;BME280;8646;49.716;9.266;2023-04-06T05:33:57;100676.78;;;0.71;77.09
17060;BME280;8646;49.716;9.266;2023-04-06T05:36:59;100685.63;;;0.66;77.46
17060;BME280;8646;49.716;9.266;2023-04-06T05:40:03;100689.19;;;0.71;79.80
17060;BME280;8646;49.716;9.266;2023-04-06T05:43:07;100690.97;;;0.69;79.45
17060;BME280;8646;49.716;9.266;2023-04-06T05:46:10;100697.16;;;0.66;79.25
17060;BME280;8646;49.716;9.266;2023-04-06T05:49:13;100690.06;;;0.67;78.81
17060;BME280;8646;49.716;9.266;2023-04-06T05:52:16;100685.72;;;1.11;77.45
17060;BME280;8646;49.716;9.266;2023-04-06T05:55:19;100688.38;;;1.22;76.44
17060;BME280;8646;49.716;9.266;2023-04-06T05:58:27;100694.63;;;1.26;76.13
17060;BME280;8646;49.716;9.266;2023-04-06T06:01:29;100682.19;;;1.25;75.97
17060;BME280;8646;49.716;9.266;2023-04-06T06:04:32;100691.97;;;1.18;76.30
17060;BME280;8646;49.716;9.266;2023-04-06T06:07:35;100692.88;;;1.52;75.58
17060;BME280;8646;49.716;9.266;2023-04-06T06:10:38;100682.91;;;2.30;72.44
17060;BME280;8646;49.716;9.266;2023-04-06T06:13:42;100671.06;;;2.90;70.08
17060;BME280;8646;49.716;9.266;2023-04-06T06:16:45;100661.72;;;3.48;67.42
17060;BME280;8646;49.716;9.266;2023-04-06T06:19:48;100656.97;;;3.78;65.35
17060;BME280;8646;49.716;9.266;2023-04-06T06:22:51;100655.63;;;4.20;64.03
17060;BME280;8646;49.716;9.266;2023-04-06T06:25:54;100647.91;;;4.65;62.63
17060;BME280;8646;49.716;9.266;2023-04-06T06:29:00;100647.41;;;5.02;61.49
17060;BME280;8646;49.716;9.266;2023-04-06T06:32:03;100639.25;;;5.08;59.80
17060;BME280;8646;49.716;9.266;2023-04-06T06:35:07;100643.88;;;4.96;59.08
17060;BME280;8646;49.716;9.266;2023-04-06T06:38:10;100631.53;;;4.86;59.50
17060;BME280;8646;49.716;9.266;2023-04-06T06:41:12;100639.38;;;4.98;59.72
17060;BME280;8646;49.716;9.266;2023-04-06T06:44:17;100642.72;;;5.14;59.05
17060;BME280;8646;49.716;9.266;2023-04-06T06:47:19;100646.16;;;5.22;58.81
17060;BME280;8646;49.716;9.266;2023-04-06T06:50:22;100642.59;;;5.22;57.83
17060;BME280;8646;49.716;9.266;2023-04-06T06:53:25;100646.88;;;5.35;57.58
17060;BME280;8646;49.716;9.266;2023-04-06T06:56:28;100641.13;;;5.56;56.45
17060;BME280;8646;49.716;9.266;2023-04-06T06:59:34;100638.34;;;5.61;55.70
17060;BME280;8646;49.716;9.266;2023-04-06T07:02:37;100639.06;;;5.70;56.19
17060;BME280;8646;49.716;9.266;2023-04-06T07:05:45;100634.31;;;5.88;56.33
17060;BME280;8646;49.716;9.266;2023-04-06T07:08:50;100625.44;;;5.83;56.09
17060;BME280;8646;49.716;9.266;2023-04-06T07:11:53;100636.03;;;5.41;58.09
17060;BME280;8646;49.716;9.266;2023-04-06T07:14:59;100638.38;;;5.06;59.21
17060;BME280;8646;49.716;9.266;2023-04-06T07:18:02;100637.69;;;4.93;58.89
17060;BME280;8646;49.716;9.266;2023-04-06T07:21:05;100632.56;;;4.75;60.43
17060;BME280;8646;49.716;9.266;2023-04-06T07:24:08;100637.97;;;4.72;58.88
17060;BME280;8646;49.716;9.266;2023-04-06T07:27:11;100634.47;;;4.68;58.84
17060;BME280;8646;49.716;9.266;2023-04-06T07:30:16;100637.28;;;4.59;59.98
17060;BME280;8646;49.716;9.266;2023-04-06T07:33:19;100633.50;;;4.72;59.04
17060;BME280;8646;49.716;9.266;2023-04-06T07:36:22;100635.16;;;4.82;58.53
17060;BME280;8646;49.716;9.266;2023-04-06T07:39:25;100628.88;;;4.83;57.77
17060;BME280;8646;49.716;9.266;2023-04-06T07:42:28;100637.59;;;4.97;58.49
17060;BME280;8646;49.716;9.266;2023-04-06T07:45:32;100633.00;;;5.06;57.83
17060;BME280;8646;49.716;9.266;2023-04-06T07:48:35;100625.03;;;5.01;58.08
17060;BME280;8646;49.716;9.266;2023-04-06T07:51:39;100611.75;;;4.93;58.71
17060;BME280;8646;49.716;9.266;2023-04-06T07:54:42;100624.94;;;5.07;58.98
17060;BME280;8646;49.716;9.266;2023-04-06T07:57:45;100621.34;;;5.08;59.33
17060;BME280;8646;49.716;9.266;2023-04-06T08:00:49;100622.19;;;5.12;58.93
17060;BME280;8646;49.716;9.266;2023-04-06T08:03:52;100606.97;;;5.12;58.66
17060;BME280;8646;49.716;9.266;2023-04-06T08:06:57;100609.47;;;5.23;58.28
17060;BME280;8646;49.716;9.266;2023-04-06T08:09:59;100605.50;;;5.45;58.27
17060;BME280;8646;49.716;9.266;2023-04-06T08:13:02;100607.13;;;5.55;57.96
17060;BME280;8646;49.716;9.266;2023-04-06T08:16:07;100597.38;;;5.51;57.88
17060;BME280;8646;49.716;9.266;2023-04-06T08:19:10;100574.00;;;5.58;57.32
17060;BME280;8646;49.716;9.266;2023-04-06T08:22:12;100595.06;;;5.79;57.64
17060;BME280;8646;49.716;9.266;2023-04-06T08:25:15;100592.13;;;5.93;56.39
17060;BME280;8646;49.716;9.266;2023-04-06T08:28:18;100557.28;;;5.91;56.10
17060;BME280;8646;49.716;9.266;2023-04-06T08:31:22;100589.59;;;6.30;56.47
17060;BME280;8646;49.716;9.266;2023-04-06T08:34:25;100586.72;;;6.39;54.88
17060;BME280;8646;49.716;9.266;2023-04-06T08:37:28;100577.78;;;6.38;54.73
17060;BME280;8646;49.716;9.266;2023-04-06T08:40:36;100571.03;;;6.59;54.27
17060;BME280;8646;49.716;9.266;2023-04-06T08:43:44;100572.41;;;6.77;53.62
17060;BME280;8646;49.716;9.266;2023-04-06T08:46:50;100563.28;;;6.84;52.99
17060;BME280;8646;49.716;9.266;2023-04-06T08:49:54;100567.09;;;7.11;52.17
17060;BME280;8646;49.716;9.266;2023-04-06T08:52:59;100551.84;;;7.11;51.55
17060;BME280;8646;49.716;9.266;2023-04-06T08:56:05;100561.88;;;7.39;50.94
17060;BME280;8646;49.716;9.266;2023-04-06T08:59:09;100562.44;;;7.53;50.19
17060;BME280;8646;49.716;9.266;2023-04-06T09:02:16;100557.88;;;7.55;50.03
17060;BME280;8646;49.716;9.266;2023-04-06T09:05:20;100557.63;;;7.64;51.19
17060;BME280;8646;49.716;9.266;2023-04-06T09:08:23;100550.91;;;7.80;49.95
17060;BME280;8646;49.716;9.266;2023-04-06T09:11:26;100546.97;;;7.93;50.54
17060;BME280;8646;49.716;9.266;2023-04-06T09:14:35;100536.28;;;8.20;49.00
17060;BME280;8646;49.716;9.266;2023-04-06T09:17:43;100536.22;;;8.21;48.78
17060;BME280;8646;49.716;9.266;2023-04-06T09:20:57;100541.94;;;8.43;49.34
17060;BME280;8646;49.716;9.266;2023-04-06T09:24:00;100529.72;;;8.59;47.07
17060;BME280;8646;49.716;9.266;2023-04-06T09:27:03;100524.13;;;8.65;47.94
17060;BME280;8646;49.716;9.266;2023-04-06T09:30:07;100522.16;;;8.70;48.47
17060;BME280;8646;49.716;9.266;2023-04-06T09:33:12;100519.41;;;9.00;47.68
17060;BME280;8646;49.716;9.266;2023-04-06T09:36:15;100510.28;;;9.04;47.79
17060;BME280;8646;49.716;9.266;2023-04-06T09:39:20;100501.28;;;9.30;46.77
17060;BME280;8646;49.716;9.266;2023-04-06T09:42:24;100503.00;;;9.32;46.95
17060;BME280;8646;49.716;9.266;2023-04-06T09:45:29;100494.69;;;9.63;46.36
17060;BME280;8646;49.716;9.266;2023-04-06T09:48:35;100482.53;;;9.75;45.24
17060;BME280;8646;49.716;9.266;2023-04-06T09:51:40;100493.63;;;9.92;46.02
17060;BME280;8646;49.716;9.266;2023-04-06T09:54:43;100480.53;;;10.05;44.98
17060;BME280;8646;49.716;9.266;2023-04-06T09:57:52;100475.63;;;10.14;45.34
17060;BME280;8646;49.716;9.266;2023-04-06T10:01:01;100479.63;;;10.29;45.44
17060;BME280;8646;49.716;9.266;2023-04-06T10:04:17;100467.13;;;10.48;45.17
17060;BME280;8646;49.716;9.266;2023-04-06T10:07:22;100462.59;;;10.70;43.90
17060;BME280;8646;49.716;9.266;2023-04-06T10:10:25;100456.63;;;10.84;43.09
17060;BME280;8646;49.716;9.266;2023-04-06T10:13:28;100458.09;;;11.13;42.57
17060;BME280;8646;49.716;9.266;2023-04-06T10:16:31;100455.81;;;11.24;41.92
17060;BME280;8646;49.716;9.266;2023-04-06T10:19:43;100445.47;;;11.34;41.17
17060;BME280;8646;49.716;9.266;2023-04-06T10:22:53;100443.63;;;11.55;40.95
17060;BME280;8646;49.716;9.266;2023-04-06T10:25:59;100433.69;;;11.75;38.51
17060;BME280;8646;49.716;9.266;2023-04-06T10:29:04;100432.88;;;11.92;39.14
17060;BME280;8646;49.716;9.266;2023-04-06T10:32:06;100427.53;;;12.09;38.52
17060;BME280;8646;49.716;9.266;2023-04-06T10:35:11;100428.56;;;12.26;38.18
17060;BME280;8646;49.716;9.266;2023-04-06T10:38:15;100428.88;;;12.38;38.07
17060;BME280;8646;49.716;9.266;2023-04-06T10:41:23;100426.06;;;12.58;37.72
17060;BME280;8646;49.716;9.266;2023-04-06T10:44:27;100424.91;;;12.64;37.44
17060;BME280;8646;49.716;9.266;2023-04-06T10:47:38;100420.63;;;12.58;37.49
17060;BME280;8646;49.716;9.266;2023-04-06T10:50:43;100419.91;;;12.55;37.94
17060;BME280;8646;49.716;9.266;2023-04-06T10:53:47;100431.88;;;12.51;37.77
17060;BME280;8646;49.716;9.266;2023-04-06T10:56:50;100422.19;;;12.64;38.03
17060;BME280;8646;49.716;9.266;2023-04-06T10:59:53;100393.59;;;12.74;35.69
17060;BME280;8646;49.716;9.266;2023-04-06T11:02:59;100394.91;;;13.02;33.50
17060;BME280;8646;49.716;9.266;2023-04-06T11:06:03;100402.81;;;13.06;34.39
17060;BME280;8646;49.716;9.266;2023-04-06T11:09:05;100408.53;;;13.36;35.08
17060;BME280;8646;49.716;9.266;2023-04-06T11:12:20;100402.84;;;13.58;34.05
17060;BME280;8646;49.716;9.266;2023-04-06T11:15:23;100403.34;;;13.82;34.27
17060;BME280;8646;49.716;9.266;2023-04-06T11:18:26;100395.06;;;14.00;33.65
17060;BME280;8646;49.716;9.266;2023-04-06T11:21:35;100397.44;;;14.22;33.44
17060;BME280;8646;49.716;9.266;2023-04-06T11:24:40;100387.47;;;14.38;33.88
17060;BME280;8646;49.716;9.266;2023-04-06T11:27:43;100387.28;;;14.57;33.53
17060;BME280;8646;49.716;9.266;2023-04-06T11:30:47;100384.94;;;14.67;32.14
17060;BME280;8646;49.716;9.266;2023-04-06T11:33:55;100371.44;;;14.79;32.65
17060;BME280;8646;49.716;9.266;2023-04-06T11:37:01;100365.03;;;14.80;31.41
17060;BME280;8646;49.716;9.266;2023-04-06T11:40:08;100364.69;;;15.01;31.99
17060;BME280;8646;49.716;9.266;2023-04-06T11:43:11;100364.38;;;15.21;32.13
17060;BME280;8646;49.716;9.266;2023-04-06T11:46:18;100352.94;;;15.44;30.90
17060;BME280;8646;49.716;9.266;2023-04-06T11:49:21;100352.31;;;15.69;31.03
17060;BME280;8646;49.716;9.266;2023-04-06T11:52:27;100351.03;;;16.03;30.52
17060;BME280;8646;49.716;9.266;2023-04-06T11:55:37;100337.13;;;16.34;29.38
17060;BME280;8646;49.716;9.266;2023-04-06T11:58:40;100335.13;;;16.51;29.14
17060;BME280;8646;49.716;9.266;2023-04-06T12:01:44;100329.56;;;16.79;28.96
17060;BME280;8646;49.716;9.266;2023-04-06T12:04:47;100328.53;;;16.94;29.60
17060;BME280;8646;49.716;9.266;2023-04-06T12:07:51;100324.78;;;16.83;29.16
17060;BME280;8646;49.716;9.266;2023-04-06T12:10:54;100322.75;;;16.72;29.37
17060;BME280;8646;49.716;9.266;2023-04-06T12:13:57;100327.97;;;16.62;28.87
17060;BME280;8646;49.716;9.266;2023-04-06T12:17:01;100327.34;;;16.71;29.03
17060;BME280;8646;49.716;9.266;2023-04-06T12:20:05;100321.25;;;16.68;27.95
17060;BME280;8646;49.716;9.266;2023-04-06T12:23:26;100311.47;;;16.64;28.64
17060;BME280;8646;49.716;9.266;2023-04-06T12:26:30;100316.06;;;16.63;28.76
17060;BME280;8646;49.716;9.266;2023-04-06T12:29:33;100314.59;;;16.58;28.53
17060;BME280;8646;49.716;9.266;2023-04-06T12:32:35;100316.63;;;16.41;28.80
17060;BME280;8646;49.716;9.266;2023-04-06T12:35:38;100312.59;;;16.20;29.18
17060;BME280;8646;49.716;9.266;2023-04-06T12:38:42;100312.94;;;15.87;29.25
17060;BME280;8646;49.716;9.266;2023-04-06T12:41:47;100319.75;;;15.66;28.79
17060;BME280;8646;49.716;9.266;2023-04-06T12:44:50;100310.53;;;15.54;28.95
17060;BME280;8646;49.716;9.266;2023-04-06T12:47:52;100309.72;;;15.67;29.13
17060;BME280;8646;49.716;9.266;2023-04-06T12:50:56;100316.38;;;15.62;28.59
17060;BME280;8646;49.716;9.266;2023-04-06T12:54:01;100303.69;;;15.76;28.53
17060;BME280;8646;49.716;9.266;2023-04-06T12:57:04;100298.91;;;15.79;27.18
17060;BME280;8646;49.716;9.266;2023-04-06T13:00:07;100304.75;;;15.73;26.95
17060;BME280;8646;49.716;9.266;2023-04-06T13:03:10;100307.78;;;15.54;27.60
17060;BME280;8646;49.716;9.266;2023-04-06T13:06:13;100307.19;;;15.78;28.12
17060;BME280;8646;49.716;9.266;2023-04-06T13:09:18;100300.66;;;15.94;28.29
17060;BME280;8646;49.716;9.266;2023-04-06T13:12:21;100297.78;;;16.10;28.75
17060;BME280;8646;49.716;9.266;2023-04-06T13:15:23;100286.53;;;16.29;28.38
17060;BME280;8646;49.716;9.266;2023-04-06T13:18:27;100291.84;;;16.45;28.15
17060;BME280;8646;49.716;9.266;2023-04-06T13:21:30;100295.09;;;16.64;28.28
17060;BME280;8646;49.716;9.266;2023-04-06T13:24:34;100292.53;;;16.88;28.29
17060;BME280;8646;49.716;9.266;2023-04-06T13:27:37;100286.78;;;17.05;28.40
17060;BME280;8646;49.716;9.266;2023-04-06T13:30:40;100286.66;;;17.06;27.77
17060;BME280;8646;49.716;9.266;2023-04-06T13:33:43;100291.78;;;16.98;28.03
17060;BME280;8646;49.716;9.266;2023-04-06T13:36:46;100296.59;;;16.95;28.08
17060;BME280;8646;49.716;9.266;2023-04-06T13:39:51;100289.44;;;16.79;28.21
17060;BME280;8646;49.716;9.266;2023-04-06T13:42:54;100285.50;;;16.71;28.17
17060;BME280;8646;49.716;9.266;2023-04-06T13:45:57;100283.53;;;16.73;28.22
17060;BME280;8646;49.716;9.266;2023-04-06T13:49:02;100286.28;;;16.73;27.49
17060;BME280;8646;49.716;9.266;2023-04-06T13:52:05;100275.97;;;16.64;28.03
17060;BME280;8646;49.716;9.266;2023-04-06T13:55:09;100288.66;;;16.65;28.43
17060;BME280;8646;49.716;9.266;2023-04-06T13:58:12;100280.72;;;16.74;27.97
17060;BME280;8646;49.716;9.266;2023-04-06T14:01:15;100277.09;;;16.74;26.92
17060;BME280;8646;49.716;9.266;2023-04-06T14:04:18;100274.78;;;16.68;27.21
17060;BME280;8646;49.716;9.266;2023-04-06T14:07:21;100275.56;;;16.70;27.64
17060;BME280;8646;49.716;9.266;2023-04-06T14:10:26;100276.22;;;16.73;27.53
17060;BME280;8646;49.716;9.266;2023-04-06T14:13:29;100272.41;;;16.76;27.47
17060;BME280;8646;49.716;9.266;2023-04-06T14:16:32;100271.84;;;16.71;27.88
17060;BME280;8646;49.716;9.266;2023-04-06T14:19:35;100278.94;;;16.61;27.97
17060;BME280;8646;49.716;9.266;2023-04-06T14:22:39;100278.38;;;16.41;28.10
17060;BME280;8646;49.716;9.266;2023-04-06T14:25:43;100280.94;;;16.30;28.41
17060;BME280;8646;49.716;9.266;2023-04-06T14:28:46;100270.16;;;16.29;27.59
17060;BME280;8646;49.716;9.266;2023-04-06T14:31:49;100278.06;;;16.19;27.88
17060;BME280;8646;49.716;9.266;2023-04-06T14:34:52;100277.28;;;16.17;28.27
17060;BME280;8646;49.716;9.266;2023-04-06T14:37:55;100282.56;;;16.20;28.52
17060;BME280;8646;49.716;9.266;2023-04-06T14:41:01;100271.03;;;16.15;28.18
17060;BME280;8646;49.716;9.266;2023-04-06T14:44:03;100279.66;;;16.09;28.29
17060;BME280;8646;49.716;9.266;2023-04-06T14:47:07;100273.50;;;16.06;27.92
17060;BME280;8646;49.716;9.266;2023-04-06T14:50:10;100272.16;;;15.98;28.15
17060;BME280;8646;49.716;9.266;2023-04-06T14:53:12;100273.91;;;15.99;27.22
17060;BME280;8646;49.716;9.266;2023-04-06T14:56:20;100269.28;;;15.87;27.73
17060;BME280;8646;49.716;9.266;2023-04-06T14:59:23;100270.91;;;15.90;28.18
17060;BME280;8646;49.716;9.266;2023-04-06T15:02:26;100264.28;;;15.94;27.77
17060;BME280;8646;49.716;9.266;2023-04-06T15:05:29;100264.09;;;15.97;27.85
17060;BME280;8646;49.716;9.266;2023-04-06T15:08:32;100266.59;;;16.00;27.52
17060;BME280;8646;49.716;9.266;2023-04-06T15:11:37;100254.25;;;15.94;27.55
17060;BME280;8646;49.716;9.266;2023-04-06T15:14:39;100257.53;;;15.99;27.51
17060;BME280;8646;49.716;9.266;2023-04-06T15:17:42;100267.59;;;15.99;27.42
17060;BME280;8646;49.716;9.266;2023-04-06T15:20:45;100266.06;;;15.95;27.20
17060;BME280;8646;49.716;9.266;2023-04-06T15:23:48;100261.66;;;15.92;27.62
17060;BME280;8646;49.716;9.266;2023-04-06T15:26:52;100260.00;;;15.90;27.22
17060;BME280;8646;49.716;9.266;2023-04-06T15:29:55;100256.78;;;15.83;27.47
17060;BME280;8646;49.716;9.266;2023-04-06T15:33:00;100256.13;;;15.80;27.88
17060;BME280;8646;49.716;9.266;2023-04-06T15:36:06;100258.97;;;15.78;27.86
17060;BME280;8646;49.716;9.266;2023-04-06T15:39:11;100253.91;;;15.72;27.55
17060;BME280;8646;49.716;9.266;2023-04-06T15:42:16;100247.84;;;15.67;27.12
17060;BME280;8646;49.716;9.266;2023-04-06T15:45:19;100252.53;;;15.65;26.88
17060;BME280;8646;49.716;9.266;2023-04-06T15:48:21;100253.53;;;15.64;27.29
17060;BME280;8646;49.716;9.266;2023-04-06T15:51:26;100251.00;;;15.61;27.08
17060;BME280;8646;49.716;9.266;2023-04-06T15:54:30;100243.31;;;15.53;27.23
17060;BME280;8646;49.716;9.266;2023-04-06T15:57:35;100250.75;;;15.50;27.56
17060;BME280;8646;49.716;9.266;2023-04-06T16:00:38;100238.81;;;15.38;27.69
17060;BME280;8646;49.716;9.266;2023-04-06T16:03:41;100242.50;;;15.37;27.45
17060;BME280;8646;49.716;9.266;2023-04-06T16:06:44;100247.47;;;15.31;27.56
17060;BME280;8646;49.716;9.266;2023-04-06T16:09:47;100245.22;;;15.23;27.47
17060;BME280;8646;49.716;9.266;2023-04-06T16:12:53;100236.44;;;15.18;27.67
17060;BME280;8646;49.716;9.266;2023-04-06T16:15:56;100238.59;;;15.13;27.88
17060;BME280;8646;49.716;9.266;2023-04-06T16:18:58;100245.59;;;15.03;27.91
17060;BME280;8646;49.716;9.266;2023-04-06T16:22:02;100243.44;;;14.94;28.19